Time;durP1;ratioP1;P1;durP2;ratioP2;P2;SDS_P1;SDS_P2;PMS_P1;PMS_P2;Temp;Humidity;BMP_temperature;BMP_pressure;BME280_temperature;BME280_humidity;BME280_pressure;Samples;Min_cycle;Max_cycle;Signal;HPM_P1;HPM_P2
2021/05/22 00:01:30;;;;;;;64.85;21.48;;;;;;;14.56;58.35;97737.50;5070961;28;20119;-74
2021/05/22 00:03:56;;;;;;;73.07;22.17;;;;;;;14.55;58.21;97733.13;5049419;28;20087;-74
2021/05/22 00:06:22;;;;;;;66.57;21.85;;;;;;;14.54;58.54;97737.81;5051719;28;20033;-73
2021/05/22 00:08:47;;;;;;;51.92;18.35;;;;;;;14.55;58.50;97728.38;5052501;28;20047;-74
2021/05/22 00:11:12;;;;;;;41.25;18.38;;;;;;;14.53;58.71;97736.19;5053462;28;20179;-73
2021/05/22 00:13:38;;;;;;;47.50;18.25;;;;;;;14.51;58.54;97735.72;5051481;28;20028;-74
2021/05/22 00:16:03;;;;;;;42.83;17.48;;;;;;;14.51;58.50;97737.69;5051503;28;20382;-74
2021/05/22 00:18:29;;;;;;;31.17;13.63;;;;;;;14.50;58.48;97742.41;5051343;28;20036;-74
2021/05/22 00:20:54;;;;;;;28.70;11.88;;;;;;;14.45;58.50;97745.41;5049549;28;20448;-74
2021/05/22 00:23:19;;;;;;;29.17;12.55;;;;;;;14.44;58.95;97739.06;5051709;28;20075;-74
2021/05/22 00:25:45;;;;;;;31.95;13.13;;;;;;;14.40;58.85;97729.84;5065172;28;20032;-73
2021/05/22 00:28:10;;;;;;;34.92;15.10;;;;;;;14.37;58.81;97719.50;5050931;28;20047;-74
2021/05/22 00:30:36;;;;;;;42.05;16.70;;;;;;;14.39;58.95;97713.66;5050696;28;20106;-74
2021/05/22 00:33:01;;;;;;;40.03;15.35;;;;;;;14.39;59.19;97714.44;5052644;28;20033;-74
2021/05/22 00:35:26;;;;;;;38.92;15.25;;;;;;;14.40;59.31;97709.75;5050771;28;20025;-73
2021/05/22 00:37:52;;;;;;;37.63;15.43;;;;;;;14.40;59.32;97704.22;5050816;28;20032;-73
2021/05/22 00:40:17;;;;;;;44.20;16.17;;;;;;;14.37;59.09;97707.66;5047904;28;20044;-74
2021/05/22 00:42:44;;;;;;;37.08;15.40;;;;;;;14.38;59.26;97701.00;5050415;28;20493;-74
2021/05/22 00:45:21;;;;;;;37.42;15.70;;;;;;;14.35;59.19;97699.72;5051454;28;20167;-73
2021/05/22 00:47:49;;;;;;;41.10;16.52;;;;;;;14.33;59.76;97690.97;5048933;28;20025;-74
2021/05/22 00:50:24;;;;;;;41.40;16.10;;;;;;;14.30;59.44;97686.13;5050345;28;20064;-73
2021/05/22 00:52:51;;;;;;;38.05;15.60;;;;;;;14.31;58.94;97681.44;5051829;28;20028;-74
2021/05/22 00:55:17;;;;;;;41.85;16.48;;;;;;;14.31;59.26;97678.69;5047912;28;20025;-74
2021/05/22 00:57:44;;;;;;;39.75;16.40;;;;;;;14.33;59.87;97676.38;5049252;28;20155;-74
2021/05/22 01:00:13;;;;;;;44.13;17.38;;;;;;;14.31;59.54;97684.97;5050259;28;20117;-74
2021/05/22 01:02:41;;;;;;;42.78;17.00;;;;;;;14.28;59.62;97680.97;5057456;28;20055;-73
2021/05/22 01:05:07;;;;;;;40.70;16.48;;;;;;;14.24;59.31;97684.75;5071091;28;20039;-74
2021/05/22 01:07:33;;;;;;;44.92;17.58;;;;;;;14.18;59.56;97678.63;5070281;28;20283;-74
2021/05/22 01:10:02;;;;;;;39.75;16.05;;;;;;;14.14;59.79;97686.78;5069051;28;20021;-75
2021/05/22 01:12:32;;;;;;;43.58;17.05;;;;;;;14.12;59.68;97686.31;5065887;28;20573;-75
2021/05/22 01:15:02;;;;;;;;;;;;;;;14.13;59.52;97687.94;5069257;28;20023;-75
2021/05/22 01:17:27;;;;;;;48.20;18.73;;;;;;;14.12;59.87;97685.50;5071256;28;19924;-75
2021/05/22 01:20:02;;;;;;;45.20;17.20;;;;;;;14.08;59.83;97695.59;5069591;28;20020;-75
2021/05/22 01:22:36;;;;;;;43.45;16.88;;;;;;;14.04;59.72;97689.16;5069434;28;20078;-75
2021/05/22 01:25:18;;;;;;;43.20;17.00;;;;;;;13.98;60.08;97681.09;5070536;28;20031;-76
2021/05/22 01:27:43;;;;;;;40.88;16.08;;;;;;;13.93;60.27;97689.56;5067457;28;20038;-75
2021/05/22 01:30:10;;;;;;;49.28;16.60;;;;;;;13.91;59.81;97688.28;5070146;28;20040;-75
2021/05/22 01:32:35;;;;;;;46.72;17.15;;;;;;;13.88;59.91;97687.00;5067498;28;20024;-76
2021/05/22 01:35:02;;;;;;;39.63;16.58;;;;;;;13.82;59.69;97693.88;5067290;28;20115;-75
2021/05/22 01:37:27;;;;;;;40.00;15.40;;;;;;;13.79;59.90;97694.53;5069021;28;20024;-75
2021/05/22 01:39:53;;;;;;;30.17;14.02;;;;;;;13.73;59.76;97699.47;5067585;28;20031;-75
2021/05/22 01:42:18;;;;;;;36.70;15.52;;;;;;;13.70;59.78;97697.38;5069844;28;20028;-75
2021/05/22 01:44:48;;;;;;;32.05;13.63;;;;;;;13.72;60.01;97688.75;5071221;28;20036;-75
2021/05/22 01:47:15;;;;;;;30.55;12.82;;;;;;;13.73;60.01;97693.13;5068883;28;20025;-76
2021/05/22 01:49:41;;;;;;;28.52;13.10;;;;;;;13.71;59.96;97679.69;5072230;28;20097;-75
2021/05/22 01:52:07;;;;;;;28.23;12.80;;;;;;;13.73;60.08;97669.16;5066682;28;20479;-75
2021/05/22 01:54:33;;;;;;;31.75;14.13;;;;;;;13.75;59.64;97682.56;5069536;28;20025;-75
2021/05/22 01:57:00;;;;;;;28.27;13.15;;;;;;;13.78;60.16;97679.16;5068906;28;20466;-75
2021/05/22 01:59:27;;;;;;;27.48;13.18;;;;;;;13.75;60.22;97672.38;5069470;28;20021;-76
2021/05/22 02:01:52;;;;;;;30.20;12.68;;;;;;;13.73;60.09;97663.63;5069236;28;20072;-76
2021/05/22 02:04:20;;;;;;;28.75;12.77;;;;;;;13.74;60.22;97654.22;5069549;28;20151;-75
2021/05/22 02:06:48;;;;;;;29.83;12.52;;;;;;;13.78;60.39;97662.59;5069602;28;20036;-75
2021/05/22 02:09:15;;;;;;;34.92;14.30;;;;;;;13.80;60.16;97657.56;5065485;28;20107;-74
2021/05/22 02:11:46;;;;;;;34.05;14.07;;;;;;;13.83;60.61;97663.22;5069563;28;20036;-75
2021/05/22 02:14:19;;;;;;;31.85;13.88;;;;;;;13.84;60.29;97667.59;5069685;28;20032;-75
2021/05/22 02:16:48;;;;;;;31.00;13.85;;;;;;;13.88;60.25;97666.91;5069839;28;20047;-75
2021/05/22 02:19:17;;;;;;;32.80;14.55;;;;;;;13.86;60.37;97671.97;5068002;28;20017;-76
2021/05/22 02:21:44;;;;;;;34.00;14.05;;;;;;;13.85;60.36;97671.16;5068877;28;20031;-75
2021/05/22 02:24:14;;;;;;;34.75;14.27;;;;;;;13.84;60.42;97667.59;5069596;28;20059;-76
2021/05/22 02:26:41;;;;;;;31.33;13.55;;;;;;;13.84;60.30;97667.59;5071072;28;20117;-76
2021/05/22 02:29:10;;;;;;;29.83;14.75;;;;;;;13.86;60.47;97658.97;5069706;28;20033;-74
2021/05/22 02:31:40;;;;;;;29.43;14.27;;;;;;;13.83;60.41;97651.38;5068186;28;20549;-74
2021/05/22 02:34:07;;;;;;;28.17;14.30;;;;;;;13.77;60.39;97659.06;5069508;28;20111;-73
2021/05/22 02:36:34;;;;;;;29.55;13.98;;;;;;;13.72;60.33;97648.25;5073414;28;20069;-74
2021/05/22 02:39:01;;;;;;;29.65;13.93;;;;;;;13.70;60.48;97639.50;5071538;28;20028;-74
2021/05/22 02:41:27;;;;;;;35.22;14.23;;;;;;;13.71;60.38;97641.13;5071061;28;20029;-74
2021/05/22 02:43:56;;;;;;;31.20;14.25;;;;;;;13.65;60.19;97640.50;5067702;28;20025;-74
2021/05/22 02:46:23;;;;;;;28.83;13.48;;;;;;;13.63;60.50;97642.00;5071419;28;20030;-74
2021/05/22 02:48:50;;;;;;;30.80;13.48;;;;;;;13.61;60.59;97633.25;5070298;28;20028;-74
2021/05/22 02:51:19;;;;;;;32.25;15.18;;;;;;;13.57;60.42;97619.34;5072776;28;20436;-74
2021/05/22 02:53:45;;;;;;;30.55;15.57;;;;;;;13.50;60.40;97619.88;5072026;28;20106;-74
2021/05/22 02:56:12;;;;;;;33.80;15.75;;;;;;;13.49;60.56;97617.47;5078630;28;20509;-75
2021/05/22 02:58:42;;;;;;;30.00;13.40;;;;;;;13.46;60.50;97623.66;5073864;28;20119;-74
2021/05/22 03:01:07;;;;;;;27.05;13.02;;;;;;;13.43;60.19;97610.53;5082523;28;20389;-74
2021/05/22 03:03:34;;;;;;;25.88;12.40;;;;;;;13.38;60.67;97612.31;5094739;28;20050;-74
2021/05/22 03:06:01;;;;;;;23.60;11.43;;;;;;;13.29;60.67;97613.53;5085676;28;20103;-75
2021/05/22 03:08:40;;;;;;;22.77;9.85;;;;;;;13.26;60.45;97620.50;5095400;28;20111;-74
2021/05/22 03:11:06;;;;;;;22.45;10.55;;;;;;;13.25;60.72;97614.22;5078207;28;20042;-74
2021/05/22 03:13:31;;;;;;;23.50;10.65;;;;;;;13.26;60.82;97606.75;5077263;28;20106;-74
2021/05/22 03:15:56;;;;;;;22.42;10.38;;;;;;;13.25;60.98;97607.88;5086722;28;20024;-74
2021/05/22 03:18:22;;;;;;;19.25;9.95;;;;;;;13.23;60.94;97599.19;5076109;28;20031;-74
2021/05/22 03:20:47;;;;;;;22.67;10.60;;;;;;;13.22;60.87;97614.88;5074938;28;20510;-74
2021/05/22 03:23:12;;;;;;;23.90;10.00;;;;;;;13.22;61.06;97606.63;5086993;28;20092;-74
2021/05/22 03:25:37;;;;;;;27.90;10.68;;;;;;;13.19;60.93;97596.28;5091723;28;20073;-74
2021/05/22 03:28:03;;;;;;;23.42;10.77;;;;;;;13.19;61.16;97596.28;5073492;28;20166;-74
2021/05/22 03:30:28;;;;;;;22.33;10.77;;;;;;;13.20;60.99;97603.38;5085836;28;20103;-75
2021/05/22 03:32:54;;;;;;;24.80;10.70;;;;;;;13.22;61.17;97606.63;5074489;28;20029;-74
2021/05/22 03:35:19;;;;;;;23.48;10.98;;;;;;;13.25;61.17;97602.38;5074744;28;20024;-76
2021/05/22 03:37:44;;;;;;;26.13;11.02;;;;;;;13.25;60.96;97602.38;5074709;28;20480;-75
2021/05/22 03:40:10;;;;;;;26.98;10.52;;;;;;;13.27;61.28;97604.81;5074471;28;20112;-74
2021/05/22 03:42:35;;;;;;;25.40;11.63;;;;;;;13.28;61.19;97609.16;5078952;28;20085;-75
2021/05/22 03:45:01;;;;;;;24.95;10.07;;;;;;;13.30;61.08;97607.69;5092312;28;20043;-74
2021/05/22 03:47:26;;;;;;;24.92;10.48;;;;;;;13.31;61.07;97603.78;5086691;28;20028;-75
2021/05/22 03:49:52;;;;;;;26.55;11.35;;;;;;;13.34;61.50;97600.38;5077019;28;20020;-75
2021/05/22 03:52:17;;;;;;;24.52;10.05;;;;;;;13.37;61.42;97596.94;5078369;28;20055;-75
2021/05/22 03:54:43;;;;;;;20.13;9.65;;;;;;;13.38;61.38;97597.78;5093232;28;20154;-74
2021/05/22 03:57:09;;;;;;;22.98;10.00;;;;;;;13.40;61.42;97592.72;5090546;28;20016;-75
2021/05/22 03:59:34;;;;;;;23.27;10.35;;;;;;;13.40;61.40;97592.72;5077445;28;20028;-74
2021/05/22 04:01:59;;;;;;;25.10;10.13;;;;;;;13.41;61.42;97583.34;5075643;28;20044;-75
2021/05/22 04:04:25;;;;;;;23.52;10.07;;;;;;;13.44;61.45;97588.19;5093133;28;20500;-75
2021/05/22 04:06:50;;;;;;;23.33;10.40;;;;;;;13.49;61.40;97587.16;5094209;28;20027;-75
2021/05/22 04:09:15;;;;;;;16.98;9.35;;;;;;;13.53;61.64;97590.88;5092483;28;20058;-76
2021/05/22 04:11:41;;;;;;;24.50;9.82;;;;;;;13.54;61.58;97595.22;5082232;28;20428;-75
2021/05/22 04:14:06;;;;;;;22.67;10.73;;;;;;;13.55;61.64;97605.91;5055344;28;20032;-76
2021/05/22 04:16:31;;;;;;;23.15;9.73;;;;;;;13.58;61.36;97604.44;5088448;28;20020;-75
2021/05/22 04:18:57;;;;;;;23.20;10.70;;;;;;;13.59;61.57;97611.56;5092352;28;20074;-76
2021/05/22 04:21:22;;;;;;;25.73;11.13;;;;;;;13.62;61.46;97602.63;5074863;28;20020;-76
2021/05/22 04:23:48;;;;;;;25.00;11.77;;;;;;;13.66;61.58;97598.03;5091023;28;20040;-76
2021/05/22 04:26:13;;;;;;;27.30;12.02;;;;;;;13.69;61.85;97602.06;5090966;28;20030;-76
2021/05/22 04:28:38;;;;;;;26.60;11.05;;;;;;;13.73;61.64;97607.69;5078859;28;20375;-75
2021/05/22 04:31:04;;;;;;;28.10;11.90;;;;;;;13.74;61.49;97595.53;5072360;28;20479;-76
2021/05/22 04:33:29;;;;;;;25.63;11.68;;;;;;;13.75;61.52;97595.22;5075479;28;20538;-75
2021/05/22 04:35:54;;;;;;;27.48;11.95;;;;;;;13.73;61.60;97592.00;5090955;28;20378;-76
2021/05/22 04:38:20;;;;;;;26.85;12.05;;;;;;;13.74;61.69;97595.53;5087238;28;20479;-75
2021/05/22 04:40:45;;;;;;;25.40;12.43;;;;;;;13.74;61.69;97596.34;5092944;28;20059;-75
2021/05/22 04:43:11;;;;;;;25.40;11.85;;;;;;;13.76;61.71;97602.34;5081733;28;20039;-75
2021/05/22 04:45:37;;;;;;;25.50;11.98;;;;;;;13.80;61.86;97616.22;5072477;28;20437;-75
2021/05/22 04:48:03;;;;;;;26.98;12.63;;;;;;;13.85;61.59;97624.28;5073299;28;20060;-76
2021/05/22 04:50:29;;;;;;;29.85;12.68;;;;;;;13.89;61.95;97629.91;5089006;28;20045;-76
2021/05/22 04:52:55;;;;;;;29.48;11.90;;;;;;;13.92;61.98;97635.59;5091449;28;20116;-75
2021/05/22 04:55:20;;;;;;;30.65;12.32;;;;;;;13.93;61.78;97637.19;5076155;28;20485;-75
2021/05/22 04:57:46;;;;;;;33.22;12.52;;;;;;;13.98;61.81;97642.50;5077615;28;20024;-76
2021/05/22 05:00:12;;;;;;;30.10;11.20;;;;;;;13.98;61.98;97647.19;5090649;28;20501;-75
2021/05/22 05:02:37;;;;;;;32.70;12.90;;;;;;;14.01;62.06;97651.25;5086719;28;20387;-75
2021/05/22 05:05:03;;;;;;;33.03;12.60;;;;;;;13.99;61.86;97643.28;5091473;28;20038;-75
2021/05/22 05:07:29;;;;;;;32.03;13.55;;;;;;;13.99;62.09;97640.53;5085558;28;20020;-76
2021/05/22 05:09:54;;;;;;;37.30;14.55;;;;;;;14.04;62.02;97643.09;5093513;28;20031;-79
2021/05/22 05:12:21;;;;;;;35.58;13.88;;;;;;;14.12;62.30;97647.72;5079723;28;20424;-75
2021/05/22 05:14:47;;;;;;;34.08;13.82;;;;;;;14.18;62.17;97644.75;5073090;28;20086;-75
2021/05/22 05:17:13;;;;;;;47.20;18.35;;;;;;;14.21;62.07;97661.41;5071132;28;20024;-75
2021/05/22 05:19:39;;;;;;;32.28;14.00;;;;;;;14.20;62.25;97662.53;5069173;28;20526;-75
2021/05/22 05:22:04;;;;;;;26.65;13.00;;;;;;;14.19;62.08;97673.94;5083079;28;20075;-76
2021/05/22 05:24:29;;;;;;;23.95;12.82;;;;;;;14.17;62.13;97679.78;5092500;28;20387;-75
2021/05/22 05:26:55;;;;;;;25.40;11.85;;;;;;;14.13;61.86;97676.91;5078504;28;20056;-74
2021/05/22 05:29:20;;;;;;;25.20;11.90;;;;;;;14.13;62.11;97676.06;5072616;28;20024;-75
2021/05/22 05:31:46;;;;;;;24.92;11.18;;;;;;;14.11;62.12;97670.91;5072927;28;20028;-75
2021/05/22 05:34:11;;;;;;;27.17;13.02;;;;;;;14.08;61.96;97673.53;5078510;28;20024;-75
2021/05/22 05:36:37;;;;;;;31.52;12.98;;;;;;;14.04;62.37;97678.94;5090814;28;20056;-75
2021/05/22 05:39:05;;;;;;;29.55;13.18;;;;;;;14.00;62.25;97683.50;5075675;28;20034;-75
2021/05/22 05:41:31;;;;;;;31.75;12.48;;;;;;;14.00;62.48;97680.75;5068374;28;20028;-75
2021/05/22 05:43:56;;;;;;;27.40;12.60;;;;;;;13.98;62.44;97681.09;5069994;28;20024;-74
2021/05/22 05:46:22;;;;;;;27.83;12.07;;;;;;;13.96;62.54;97694.41;5067883;28;20033;-76
2021/05/22 05:48:47;;;;;;;26.80;12.23;;;;;;;13.95;62.36;97695.56;5068109;28;20020;-76
2021/05/22 05:51:12;;;;;;;25.70;12.15;;;;;;;13.94;62.41;97671.06;5077083;28;20556;-75
2021/05/22 05:53:39;;;;;;;22.42;11.32;;;;;;;14.01;62.20;97665.03;5064456;28;20021;-75
2021/05/22 05:56:04;;;;;;;25.17;11.63;;;;;;;14.07;62.77;97669.97;5066312;28;20024;-75
2021/05/22 05:58:30;;;;;;;25.75;12.13;;;;;;;14.10;62.76;97654.69;5068314;28;20545;-74
2021/05/22 06:00:55;;;;;;;27.58;11.85;;;;;;;14.19;62.47;97644.38;5069412;28;20554;-74
2021/05/22 06:03:27;;;;;;;25.83;11.48;;;;;;;14.29;62.58;97665.22;5072050;28;20032;-73
2021/05/22 06:05:53;;;;;;;29.73;14.18;;;;;;;14.33;62.66;97682.69;5085838;28;20024;-74
2021/05/22 06:08:19;;;;;;;31.83;14.02;;;;;;;14.39;62.82;97684.09;5073389;28;20074;-74
2021/05/22 06:10:46;;;;;;;30.90;13.30;;;;;;;14.41;62.56;97681.00;5075229;28;20028;-74
2021/05/22 06:13:12;;;;;;;30.33;13.27;;;;;;;14.44;62.60;97685.84;5078397;28;20016;-75
2021/05/22 06:15:37;;;;;;;35.22;13.98;;;;;;;14.43;62.54;97687.78;5073752;28;20013;-75
2021/05/22 06:18:03;;;;;;;48.35;18.50;;;;;;;14.46;62.45;97704.81;5074478;28;20037;-74
2021/05/22 06:20:29;;;;;;;63.40;22.85;;;;;;;14.44;62.57;97702.41;5080495;28;20514;-74
2021/05/22 06:22:54;;;;;;;48.53;17.85;;;;;;;14.44;62.51;97705.16;5075761;28;20016;-73
2021/05/22 06:25:20;;;;;;;50.13;17.88;;;;;;;14.46;62.33;97691.00;5075907;28;20081;-74
2021/05/22 06:27:45;;;;;;;58.58;20.60;;;;;;;14.42;62.17;97694.44;5079666;28;20028;-74
2021/05/22 06:30:11;;;;;;;76.28;25.77;;;;;;;14.43;61.99;97695.28;5075476;28;20166;-73
2021/05/22 06:32:37;;;;;;;65.95;23.60;;;;;;;14.42;62.33;97694.44;5073893;28;20040;-74
2021/05/22 06:35:03;;;;;;;46.45;17.33;;;;;;;14.45;62.20;97690.22;5078854;28;20048;-73
2021/05/22 06:37:29;;;;;;;48.50;17.30;;;;;;;14.49;62.46;97688.38;5080628;28;20073;-74
2021/05/22 06:39:54;;;;;;;56.72;19.52;;;;;;;14.47;61.81;97698.16;5081662;28;20386;-73
2021/05/22 06:42:20;;;;;;;36.63;12.98;;;;;;;14.46;61.81;97689.06;5073640;28;20027;-74
2021/05/22 06:45:02;;;;;;;30.05;11.32;;;;;;;14.43;61.40;97690.53;5081697;28;20021;-74
2021/05/22 06:47:27;;;;;;;80.55;27.23;;;;;;;14.42;61.77;97691.69;5078535;28;20567;-74
2021/05/22 06:49:52;;;;;;;33.70;13.43;;;;;;;14.44;61.68;97696.88;5072306;28;20111;-74
2021/05/22 06:52:18;;;;;;;35.97;13.50;;;;;;;14.44;61.51;97700.44;5071726;28;20537;-74
2021/05/22 06:54:43;;;;;;;30.98;10.88;;;;;;;14.45;61.79;97704.00;5081503;28;20016;-73
2021/05/22 06:57:09;;;;;;;27.50;11.20;;;;;;;14.48;61.74;97706.06;5075494;28;20233;-73
2021/05/22 06:59:35;;;;;;;27.63;10.98;;;;;;;14.48;61.37;97695.03;5072295;28;20024;-73
2021/05/22 07:02:00;;;;;;;24.13;9.70;;;;;;;14.45;61.26;97690.22;5075005;28;20045;-73
2021/05/22 07:04:26;;;;;;;19.05;9.27;;;;;;;14.44;61.21;97675.59;5084295;28;20103;-73
2021/05/22 07:06:51;;;;;;;30.67;10.43;;;;;;;14.45;61.39;97684.69;5082011;28;20022;-74
2021/05/22 07:09:16;;;;;;;29.80;13.27;;;;;;;14.46;61.38;97693.78;5084031;28;20028;-74
2021/05/22 07:11:42;;;;;;;28.90;11.50;;;;;;;14.49;61.40;97712.41;5069532;28;20052;-75
2021/05/22 07:14:08;;;;;;;25.38;13.82;;;;;;;14.49;61.20;97717.91;5075161;28;20051;-75
2021/05/22 07:16:34;;;;;;;33.50;15.10;;;;;;;14.53;61.38;97718.84;5074790;28;20027;-73
2021/05/22 07:19:01;;;;;;;37.80;15.32;;;;;;;14.54;61.57;97728.75;5078038;28;20027;-71
2021/05/22 07:21:27;;;;;;;27.77;8.35;;;;;;;14.50;61.32;97725.84;5073568;28;20028;-72
2021/05/22 07:23:52;;;;;;;23.35;8.93;;;;;;;14.47;60.98;97709.19;5079542;28;20040;-74
2021/05/22 07:26:18;;;;;;;42.47;13.50;;;;;;;14.41;60.83;97706.63;5072226;28;20419;-72
2021/05/22 07:28:43;;;;;;;26.23;10.82;;;;;;;14.37;60.84;97719.50;5071620;28;20024;-72
2021/05/22 07:31:08;;;;;;;36.05;13.43;;;;;;;14.34;61.10;97719.38;5073440;28;20386;-72
2021/05/22 07:33:36;;;;;;;33.33;9.52;;;;;;;14.29;61.04;97723.94;5071630;28;20048;-72
2021/05/22 07:36:02;;;;;;;23.85;7.63;;;;;;;14.21;60.40;97729.56;5075297;28;20029;-74
2021/05/22 07:38:28;;;;;;;39.72;8.90;;;;;;;14.16;61.04;97715.97;5073865;28;20387;-72
2021/05/22 07:40:53;;;;;;;52.67;13.07;;;;;;;14.12;61.01;97705.63;5074707;28;20092;-73
2021/05/22 07:43:20;;;;;;;22.73;9.55;;;;;;;14.15;61.01;97698.59;5074983;28;20048;-72
2021/05/22 07:45:45;;;;;;;37.85;14.60;;;;;;;14.22;61.26;97698.88;5074636;28;20020;-72
2021/05/22 07:48:10;;;;;;;22.77;9.45;;;;;;;14.28;61.40;97707.72;5074974;28;20027;-72
2021/05/22 07:50:36;;;;;;;32.28;9.88;;;;;;;14.35;61.47;97709.94;5074552;28;20490;-71
2021/05/22 07:53:03;;;;;;;23.20;8.23;;;;;;;14.42;61.20;97707.44;5074700;28;20541;-72
2021/05/22 07:55:29;;;;;;;16.63;7.68;;;;;;;14.43;61.17;97706.31;5090431;28;20017;-72
2021/05/22 07:57:55;;;;;;;14.05;7.22;;;;;;;14.42;61.26;97710.22;5074779;28;20025;-73
2021/05/22 08:00:21;;;;;;;24.98;12.43;;;;;;;14.43;61.17;97714.59;5075028;28;20032;-72
2021/05/22 08:02:47;;;;;;;33.00;20.27;;;;;;;14.39;60.98;97716.41;5074354;28;20052;-72
2021/05/22 08:05:13;;;;;;;21.17;10.55;;;;;;;14.34;60.85;97716.63;5070295;28;20064;-73
2021/05/22 08:07:39;;;;;;;15.02;6.13;;;;;;;14.35;60.69;97721.00;5074121;28;20024;-72
2021/05/22 08:10:06;;;;;;;13.15;5.80;;;;;;;14.27;60.74;97723.47;5074465;28;20055;-72
2021/05/22 08:12:34;;;;;;;19.88;5.80;;;;;;;14.16;60.36;97722.28;5073187;28;20043;-72
2021/05/22 08:15:00;;;;;;;31.05;9.60;;;;;;;14.07;60.69;97719.59;5074391;28;20085;-72
2021/05/22 08:17:25;;;;;;;27.48;8.68;;;;;;;14.02;60.79;97719.03;5074222;28;20103;-73
2021/05/22 08:19:50;;;;;;;26.77;10.07;;;;;;;14.02;60.91;97724.53;5074191;28;20040;-72
2021/05/22 08:22:16;;;;;;;27.52;8.20;;;;;;;13.99;61.11;97724.06;5074284;28;20029;-72
2021/05/22 08:24:41;;;;;;;24.70;7.63;;;;;;;13.99;61.30;97735.09;5074044;28;20447;-72
2021/05/22 08:27:07;;;;;;;30.20;7.40;;;;;;;13.94;61.65;97735.28;5072507;28;20031;-73
2021/05/22 08:29:32;;;;;;;37.38;9.88;;;;;;;13.88;61.83;97733.06;5073780;28;20051;-73
2021/05/22 08:31:58;;;;;;;39.58;12.20;;;;;;;13.86;62.22;97743.63;5073217;28;20064;-73
2021/05/22 08:34:26;;;;;;;53.95;14.77;;;;;;;13.77;62.34;97751.94;5072586;28;20107;-73
2021/05/22 08:36:51;;;;;;;32.95;8.32;;;;;;;13.65;62.93;97758.97;5073717;28;20032;-74
2021/05/22 08:39:17;;;;;;;25.48;7.95;;;;;;;13.52;62.91;97765.56;5073473;28;20483;-73
2021/05/22 08:41:43;;;;;;;27.40;8.02;;;;;;;13.46;63.17;97758.63;5073332;28;20032;-73
2021/05/22 08:44:09;;;;;;;41.58;11.30;;;;;;;13.40;63.49;97769.78;5071471;28;20032;-73
2021/05/22 08:46:34;;;;;;;22.88;8.15;;;;;;;13.27;63.71;97768.06;5069804;28;20042;-73
2021/05/22 08:49:00;;;;;;;36.55;13.23;;;;;;;13.18;64.19;97762.59;5069757;28;20489;-73
2021/05/22 08:51:25;;;;;;;12.35;5.47;;;;;;;13.08;64.68;97754.72;5070716;28;20028;-72
2021/05/22 08:53:51;;;;;;;17.95;8.40;;;;;;;12.99;64.53;97751.19;5072014;28;20031;-72
2021/05/22 08:56:17;;;;;;;14.70;8.90;;;;;;;12.92;65.13;97757.19;5068934;28;20108;-75
2021/05/22 08:58:42;;;;;;;22.27;10.27;;;;;;;12.88;65.13;97764.50;5066792;28;20028;-72
2021/05/22 09:01:09;;;;;;;14.70;6.82;;;;;;;12.81;65.48;97765.00;5069804;28;20044;-72
2021/05/22 09:03:34;;;;;;;12.10;6.47;;;;;;;12.78;65.72;97765.66;5069145;28;20044;-72
2021/05/22 09:05:59;;;;;;;14.85;7.53;;;;;;;12.78;65.66;97760.16;5070077;28;20025;-72
2021/05/22 09:08:25;;;;;;;17.25;8.13;;;;;;;12.83;65.95;97750.94;5072384;28;20474;-72
2021/05/22 09:10:52;;;;;;;18.25;9.20;;;;;;;12.84;66.41;97756.09;5068552;28;20093;-73
2021/05/22 09:13:24;;;;;;;18.70;9.68;;;;;;;12.88;66.29;97761.75;5068322;28;20529;-73
2021/05/22 09:16:05;;;;;;;15.25;7.05;;;;;;;12.83;66.51;97761.94;5068882;28;20027;-73
2021/05/22 09:18:36;;;;;;;20.90;9.57;;;;;;;12.78;66.86;97760.16;5067985;28;20119;-74
2021/05/22 09:21:04;;;;;;;20.10;7.43;;;;;;;12.78;67.23;97762.91;5069808;28;20108;-73
2021/05/22 09:23:32;;;;;;;13.43;5.85;;;;;;;12.73;67.72;97763.91;5071198;28;20082;-74
2021/05/22 09:26:01;;;;;;;22.42;8.00;;;;;;;12.69;67.25;97762.13;5072771;28;20482;-73
2021/05/22 09:28:32;;;;;;;23.40;8.98;;;;;;;12.62;67.24;97768.94;5070293;28;20021;-72
2021/05/22 09:36:27;;;;;;;49.83;15.88;;;;;;;12.70;68.27;97777.50;5880880;22;20008;-72
2021/05/22 09:38:55;;;;;;;29.63;10.77;;;;;;;12.72;68.47;97769.72;4977224;28;20049;-69
2021/05/22 09:41:34;;;;;;;41.13;14.50;;;;;;;12.74;68.09;97775.69;4993009;28;20064;-70
2021/05/22 09:44:18;;;;;;;43.13;15.23;;;;;;;12.74;68.17;97779.28;4991739;28;20033;-70
2021/05/22 09:46:46;;;;;;;29.90;13.68;;;;;;;12.74;68.40;97783.97;4987641;28;20101;-70
2021/05/22 09:49:28;;;;;;;37.10;14.35;;;;;;;12.71;68.98;97781.84;4977287;28;20026;-70
2021/05/22 09:51:58;;;;;;;30.80;13.43;;;;;;;12.71;68.83;97782.69;4988168;28;20032;-70
2021/05/22 09:54:40;;;;;;;20.80;10.02;;;;;;;12.71;68.71;97798.38;4992830;28;20026;-71
2021/05/22 09:57:06;;;;;;;28.73;12.10;;;;;;;12.64;69.10;97785.13;4992720;28;20153;-70
2021/05/22 09:59:31;;;;;;;21.17;8.48;;;;;;;12.64;69.46;97791.41;4992638;28;20058;-70
2021/05/22 10:01:58;;;;;;;22.55;7.97;;;;;;;12.64;69.01;97785.91;4990357;28;20626;-70
2021/05/22 10:04:25;;;;;;;14.70;6.22;;;;;;;12.63;68.88;97802.75;4971654;28;20038;-70
2021/05/22 10:06:51;;;;;;;16.85;6.90;;;;;;;12.60;68.62;97806.97;4972125;28;20078;-70
2021/05/22 10:09:18;;;;;;;20.70;9.27;;;;;;;12.60;69.03;97806.16;4976766;28;20528;-69
2021/05/22 10:12:04;;;;;;;14.82;6.55;;;;;;;12.63;68.55;97809.06;4972622;28;20046;-69
2021/05/22 10:14:36;;;;;;;21.98;8.05;;;;;;;12.70;68.97;97816.00;4966990;28;20054;-69
2021/05/22 10:17:02;;;;;;;15.95;7.25;;;;;;;12.72;69.18;97819.25;4953801;29;20026;-69
2021/05/22 10:19:30;;;;;;;16.90;6.47;;;;;;;12.71;68.71;97825.88;4959536;28;20019;-69
2021/05/22 10:21:56;;;;;;;21.70;7.80;;;;;;;12.64;69.12;97816.16;4972507;28;20055;-69
2021/05/22 10:24:21;;;;;;;24.58;9.05;;;;;;;12.60;68.77;97815.22;4975621;28;20396;-69
2021/05/22 10:26:48;;;;;;;27.02;10.15;;;;;;;12.58;68.66;97808.44;4983569;28;20101;-69
2021/05/22 10:29:14;;;;;;;27.23;8.98;;;;;;;12.54;69.28;97811.03;4972726;28;20069;-68
2021/05/22 10:31:41;;;;;;;42.45;13.07;;;;;;;12.53;68.86;97811.34;4972801;28;20038;-69
2021/05/22 10:34:12;;;;;;;23.35;8.65;;;;;;;12.49;68.75;97814.72;4972979;28;20019;-68
2021/05/22 10:36:49;;;;;;;21.58;8.05;;;;;;;12.44;69.33;97816.84;4982468;28;20050;-69
2021/05/22 10:39:33;;;;;;;21.83;8.95;;;;;;;12.39;69.33;97812.34;4979765;28;20027;-69
2021/05/22 10:42:02;;;;;;;21.58;8.32;;;;;;;12.35;69.44;97819.63;4974621;28;20030;-69
2021/05/22 10:44:29;;;;;;;18.93;7.20;;;;;;;12.28;69.43;97822.81;4982874;28;20038;-69
2021/05/22 10:47:05;;;;;;;13.73;6.50;;;;;;;12.21;69.48;97826.06;4979097;28;20403;-69
2021/05/22 10:49:53;;;;;;;22.73;7.38;;;;;;;12.17;69.78;97827.06;4977776;28;20026;-69
2021/05/22 10:52:25;;;;;;;18.60;6.93;;;;;;;12.15;70.13;97829.31;4966251;28;20042;-69
2021/05/22 10:55:12;;;;;;;20.83;9.23;;;;;;;12.17;69.53;97818.81;4958884;28;20113;-69
2021/05/22 10:57:46;;;;;;;21.58;8.32;;;;;;;12.23;70.11;97814.75;4979223;28;20039;-69
2021/05/22 11:00:20;;;;;;;26.98;9.27;;;;;;;12.26;70.47;97818.78;4960354;28;20027;-69
2021/05/22 11:02:54;;;;;;;32.55;13.32;;;;;;;12.29;70.20;97812.66;4982855;28;20046;-71
2021/05/22 11:05:28;;;;;;;30.88;12.55;;;;;;;12.33;70.26;97817.16;4962184;28;20093;-70
2021/05/22 11:08:02;;;;;;;186.18;46.17;;;;;;;12.35;70.06;97814.13;4959811;28;20024;-70
2021/05/22 11:10:39;;;;;;;96.50;30.02;;;;;;;12.41;70.31;97823.81;4972427;28;20598;-70
2021/05/22 11:13:10;;;;;;;60.08;22.02;;;;;;;12.48;70.53;97832.38;4964310;28;20047;-70
2021/05/22 11:15:57;;;;;;;47.38;19.63;;;;;;;12.51;70.59;97833.69;4955456;28;20035;-69
2021/05/22 11:18:27;;;;;;;39.85;14.80;;;;;;;12.58;70.53;97833.19;4954636;28;20027;-69
2021/05/22 11:21:24;;;;;;;69.13;19.67;;;;;;;12.62;70.21;97826.72;4952227;28;20035;-70
2021/05/22 11:23:59;;;;;;;26.20;11.30;;;;;;;12.65;70.58;97831.53;4953830;28;20038;-70
2021/05/22 11:26:43;;;;;;;37.17;17.60;;;;;;;12.66;70.56;97827.66;4961094;28;20114;-72